sensor_id;sensor_type;location;lat;lon;timestamp;P1;durP1;ratioP1;P2;durP2;ratioP2
14619;SDS011;32125;48.518;9.050;2022-07-21T00:01:52;16.88;;;15.18;;
14619;SDS011;32125;48.518;9.050;2022-07-21T00:04:23;16.90;;;15.20;;
14619;SDS011;32125;48.518;9.050;2022-07-21T00:06:49;17.33;;;15.63;;
14619;SDS011;32125;48.518;9.050;2022-07-21T00:09:16;16.60;;;14.90;;
14619;SDS011;32125;48.518;9.050;2022-07-21T00:11:42;16.00;;;14.40;;
14619;SDS011;32125;48.518;9.050;2022-07-21T00:14:11;17.53;;;14.90;;
14619;SDS011;32125;48.518;9.050;2022-07-21T00:16:40;16.00;;;14.30;;
14619;SDS011;32125;48.518;9.050;2022-07-21T00:19:07;14.70;;;13.30;;
14619;SDS011;32125;48.518;9.050;2022-07-21T00:21:35;15.60;;;14.20;;
14619;SDS011;32125;48.518;9.050;2022-07-21T00:24:02;17.30;;;14.07;;
14619;SDS011;32125;48.518;9.050;2022-07-21T00:26:28;15.73;;;14.23;;
14619;SDS011;32125;48.518;9.050;2022-07-21T00:28:57;16.13;;;14.53;;
14619;SDS011;32125;48.518;9.050;2022-07-21T00:31:25;15.70;;;14.20;;
14619;SDS011;32125;48.518;9.050;2022-07-21T00:33:54;15.10;;;13.50;;
14619;SDS011;32125;48.518;9.050;2022-07-21T00:36:20;16.03;;;14.30;;
14619;SDS011;32125;48.518;9.050;2022-07-21T00:38:48;15.70;;;14.20;;
14619;SDS011;32125;48.518;9.050;2022-07-21T00:41:17;15.60;;;13.93;;
14619;SDS011;32125;48.518;9.050;2022-07-21T00:43:43;15.55;;;14.00;;
14619;SDS011;32125;48.518;9.050;2022-07-21T00:46:09;16.35;;;14.15;;
14619;SDS011;32125;48.518;9.050;2022-07-21T00:48:37;15.30;;;13.70;;
14619;SDS011;32125;48.518;9.050;2022-07-21T00:51:05;14.25;;;12.95;;
14619;SDS011;32125;48.518;9.050;2022-07-21T00:53:32;14.30;;;12.90;;
14619;SDS011;32125;48.518;9.050;2022-07-21T00:55:59;14.43;;;12.93;;
14619;SDS011;32125;48.518;9.050;2022-07-21T00:58:25;14.67;;;13.20;;
14619;SDS011;32125;48.518;9.050;2022-07-21T01:00:51;14.67;;;13.27;;
14619;SDS011;32125;48.518;9.050;2022-07-21T01:03:17;14.13;;;12.73;;
14619;SDS011;32125;48.518;9.050;2022-07-21T01:05:43;14.20;;;12.77;;
14619;SDS011;32125;48.518;9.050;2022-07-21T01:08:12;14.48;;;13.07;;
14619;SDS011;32125;48.518;9.050;2022-07-21T01:10:38;13.03;;;11.83;;
14619;SDS011;32125;48.518;9.050;2022-07-21T01:13:04;13.48;;;12.18;;
14619;SDS011;32125;48.518;9.050;2022-07-21T01:15:30;13.00;;;11.63;;
14619;SDS011;32125;48.518;9.050;2022-07-21T01:17:56;13.95;;;12.65;;
14619;SDS011;32125;48.518;9.050;2022-07-21T01:20:23;13.30;;;12.00;;
14619;SDS011;32125;48.518;9.050;2022-07-21T01:22:53;13.50;;;12.23;;
14619;SDS011;32125;48.518;9.050;2022-07-21T01:25:21;13.27;;;11.97;;
14619;SDS011;32125;48.518;9.050;2022-07-21T01:27:47;12.43;;;9.87;;
14619;SDS011;32125;48.518;9.050;2022-07-21T01:30:13;13.60;;;10.10;;
14619;SDS011;32125;48.518;9.050;2022-07-21T01:32:39;11.43;;;9.35;;
14619;SDS011;32125;48.518;9.050;2022-07-21T01:35:09;12.90;;;9.20;;
14619;SDS011;32125;48.518;9.050;2022-07-21T01:37:40;10.27;;;9.40;;
14619;SDS011;32125;48.518;9.050;2022-07-21T01:40:08;11.73;;;9.48;;
14619;SDS011;32125;48.518;9.050;2022-07-21T01:42:56;10.60;;;9.50;;
14619;SDS011;32125;48.518;9.050;2022-07-21T01:45:22;11.45;;;9.70;;
14619;SDS011;32125;48.518;9.050;2022-07-21T01:47:49;10.93;;;9.80;;
14619;SDS011;32125;48.518;9.050;2022-07-21T01:50:15;11.77;;;9.60;;
14619;SDS011;32125;48.518;9.050;2022-07-21T01:52:43;10.52;;;9.52;;
14619;SDS011;32125;48.518;9.050;2022-07-21T01:55:09;11.50;;;9.43;;
14619;SDS011;32125;48.518;9.050;2022-07-21T01:57:35;11.70;;;9.93;;
14619;SDS011;32125;48.518;9.050;2022-07-21T02:00:04;9.73;;;8.82;;
14619;SDS011;32125;48.518;9.050;2022-07-21T02:02:30;10.02;;;9.02;;
14619;SDS011;32125;48.518;9.050;2022-07-21T02:04:56;13.32;;;10.00;;
14619;SDS011;32125;48.518;9.050;2022-07-21T02:07:22;10.82;;;9.35;;
14619;SDS011;32125;48.518;9.050;2022-07-21T02:09:50;10.18;;;8.90;;
14619;SDS011;32125;48.518;9.050;2022-07-21T02:12:16;9.80;;;8.80;;
14619;SDS011;32125;48.518;9.050;2022-07-21T02:14:42;9.27;;;8.48;;
14619;SDS011;32125;48.518;9.050;2022-07-21T02:17:07;11.43;;;8.60;;
14619;SDS011;32125;48.518;9.050;2022-07-21T02:19:33;9.15;;;8.32;;
14619;SDS011;32125;48.518;9.050;2022-07-21T02:22:01;9.10;;;8.23;;
14619;SDS011;32125;48.518;9.050;2022-07-21T02:24:27;9.25;;;8.45;;
14619;SDS011;32125;48.518;9.050;2022-07-21T02:26:55;8.90;;;8.10;;
14619;SDS011;32125;48.518;9.050;2022-07-21T02:29:23;9.07;;;7.85;;
14619;SDS011;32125;48.518;9.050;2022-07-21T02:31:49;11.00;;;8.73;;
14619;SDS011;32125;48.518;9.050;2022-07-21T02:34:14;9.43;;;8.43;;
14619;SDS011;32125;48.518;9.050;2022-07-21T02:36:40;9.40;;;8.50;;
14619;SDS011;32125;48.518;9.050;2022-07-21T02:39:08;9.40;;;8.50;;
14619;SDS011;32125;48.518;9.050;2022-07-21T02:41:34;9.63;;;8.67;;
14619;SDS011;32125;48.518;9.050;2022-07-21T02:44:00;9.85;;;8.85;;
14619;SDS011;32125;48.518;9.050;2022-07-21T02:46:26;12.32;;;9.13;;
14619;SDS011;32125;48.518;9.050;2022-07-21T02:48:52;9.20;;;8.30;;
14619;SDS011;32125;48.518;9.050;2022-07-21T02:51:18;11.73;;;8.80;;
14619;SDS011;32125;48.518;9.050;2022-07-21T02:53:44;13.57;;;9.13;;
14619;SDS011;32125;48.518;9.050;2022-07-21T02:56:12;9.13;;;8.32;;
14619;SDS011;32125;48.518;9.050;2022-07-21T02:58:42;10.20;;;9.25;;
14619;SDS011;32125;48.518;9.050;2022-07-21T03:01:10;10.77;;;9.15;;
14619;SDS011;32125;48.518;9.050;2022-07-21T03:03:36;10.55;;;8.82;;
14619;SDS011;32125;48.518;9.050;2022-07-21T03:06:05;11.07;;;8.77;;
14619;SDS011;32125;48.518;9.050;2022-07-21T03:08:31;11.75;;;9.10;;
14619;SDS011;32125;48.518;9.050;2022-07-21T03:10:59;9.73;;;8.73;;
14619;SDS011;32125;48.518;9.050;2022-07-21T03:13:25;10.38;;;9.27;;
14619;SDS011;32125;48.518;9.050;2022-07-21T03:15:51;13.37;;;9.47;;
14619;SDS011;32125;48.518;9.050;2022-07-21T03:18:19;10.40;;;8.80;;
14619;SDS011;32125;48.518;9.050;2022-07-21T03:20:45;10.13;;;9.10;;
14619;SDS011;32125;48.518;9.050;2022-07-21T03:23:11;10.32;;;9.25;;
14619;SDS011;32125;48.518;9.050;2022-07-21T03:25:38;11.83;;;8.80;;
14619;SDS011;32125;48.518;9.050;2022-07-21T03:28:06;10.80;;;8.73;;
14619;SDS011;32125;48.518;9.050;2022-07-21T03:30:32;9.60;;;8.80;;
14619;SDS011;32125;48.518;9.050;2022-07-21T03:32:58;10.00;;;8.18;;
14619;SDS011;32125;48.518;9.050;2022-07-21T03:35:24;9.55;;;8.52;;
14619;SDS011;32125;48.518;9.050;2022-07-21T03:37:51;9.85;;;8.85;;
14619;SDS011;32125;48.518;9.050;2022-07-21T03:40:19;9.47;;;8.57;;
14619;SDS011;32125;48.518;9.050;2022-07-21T03:42:51;10.07;;;8.90;;
14619;SDS011;32125;48.518;9.050;2022-07-21T03:45:18;9.57;;;8.53;;
14619;SDS011;32125;48.518;9.050;2022-07-21T03:47:44;10.65;;;8.43;;
14619;SDS011;32125;48.518;9.050;2022-07-21T03:50:10;10.15;;;9.15;;
14619;SDS011;32125;48.518;9.050;2022-07-21T03:52:37;11.65;;;9.38;;
14619;SDS011;32125;48.518;9.050;2022-07-21T03:55:03;9.55;;;8.65;;
14619;SDS011;32125;48.518;9.050;2022-07-21T03:57:40;18.73;;;8.50;;
14619;SDS011;32125;48.518;9.050;2022-07-21T04:00:21;9.23;;;8.32;;
14619;SDS011;32125;48.518;9.050;2022-07-21T04:02:50;9.85;;;8.88;;
14619;SDS011;32125;48.518;9.050;2022-07-21T04:05:16;10.23;;;8.73;;
14619;SDS011;32125;48.518;9.050;2022-07-21T04:07:46;10.15;;;9.15;;
14619;SDS011;32125;48.518;9.050;2022-07-21T04:10:13;10.52;;;8.75;;
14619;SDS011;32125;48.518;9.050;2022-07-21T04:12:40;10.07;;;9.07;;
14619;SDS011;32125;48.518;9.050;2022-07-21T04:15:10;9.63;;;8.73;;
14619;SDS011;32125;48.518;9.050;2022-07-21T04:17:37;9.77;;;8.87;;
14619;SDS011;32125;48.518;9.050;2022-07-21T04:20:03;9.57;;;8.67;;
14619;SDS011;32125;48.518;9.050;2022-07-21T04:22:30;10.83;;;9.13;;
14619;SDS011;32125;48.518;9.050;2022-07-21T04:24:56;10.38;;;9.38;;
14619;SDS011;32125;48.518;9.050;2022-07-21T04:27:24;9.90;;;8.90;;
14619;SDS011;32125;48.518;9.050;2022-07-21T04:29:53;10.27;;;8.80;;
14619;SDS011;32125;48.518;9.050;2022-07-21T04:32:19;10.13;;;9.02;;
14619;SDS011;32125;48.518;9.050;2022-07-21T04:34:45;9.83;;;8.90;;
14619;SDS011;32125;48.518;9.050;2022-07-21T04:37:10;9.50;;;8.70;;
14619;SDS011;32125;48.518;9.050;2022-07-21T04:39:36;9.93;;;8.93;;
14619;SDS011;32125;48.518;9.050;2022-07-21T04:42:02;10.60;;;9.18;;
14619;SDS011;32125;48.518;9.050;2022-07-21T04:44:29;10.30;;;9.30;;
14619;SDS011;32125;48.518;9.050;2022-07-21T04:46:54;10.63;;;9.63;;
14619;SDS011;32125;48.518;9.050;2022-07-21T04:49:20;10.33;;;9.07;;
14619;SDS011;32125;48.518;9.050;2022-07-21T04:51:48;10.00;;;9.00;;
14619;SDS011;32125;48.518;9.050;2022-07-21T04:54:13;10.32;;;9.02;;
14619;SDS011;32125;48.518;9.050;2022-07-21T04:56:40;11.07;;;9.90;;
14619;SDS011;32125;48.518;9.050;2022-07-21T04:59:07;12.02;;;9.38;;
14619;SDS011;32125;48.518;9.050;2022-07-21T05:01:33;11.00;;;9.90;;
14619;SDS011;32125;48.518;9.050;2022-07-21T05:04:01;11.48;;;9.95;;
14619;SDS011;32125;48.518;9.050;2022-07-21T05:06:27;11.27;;;10.20;;
14619;SDS011;32125;48.518;9.050;2022-07-21T05:08:53;10.48;;;9.45;;
14619;SDS011;32125;48.518;9.050;2022-07-21T05:11:18;12.15;;;9.57;;
14619;SDS011;32125;48.518;9.050;2022-07-21T05:13:46;11.07;;;9.95;;
14619;SDS011;32125;48.518;9.050;2022-07-21T05:16:14;11.00;;;9.60;;
14619;SDS011;32125;48.518;9.050;2022-07-21T05:18:42;12.25;;;9.15;;
14619;SDS011;32125;48.518;9.050;2022-07-21T05:21:08;10.47;;;9.47;;
14619;SDS011;32125;48.518;9.050;2022-07-21T05:23:34;10.38;;;9.48;;
14619;SDS011;32125;48.518;9.050;2022-07-21T05:26:00;11.07;;;9.98;;
14619;SDS011;32125;48.518;9.050;2022-07-21T05:28:29;10.73;;;9.65;;
14619;SDS011;32125;48.518;9.050;2022-07-21T05:30:55;11.35;;;9.40;;
14619;SDS011;32125;48.518;9.050;2022-07-21T05:33:23;12.07;;;10.70;;
14619;SDS011;32125;48.518;9.050;2022-07-21T05:35:49;10.52;;;9.52;;
14619;SDS011;32125;48.518;9.050;2022-07-21T05:38:15;11.65;;;10.45;;
14619;SDS011;32125;48.518;9.050;2022-07-21T05:40:41;11.13;;;9.60;;
14619;SDS011;32125;48.518;9.050;2022-07-21T05:43:07;10.55;;;9.48;;
14619;SDS011;32125;48.518;9.050;2022-07-21T05:45:33;11.05;;;9.55;;
14619;SDS011;32125;48.518;9.050;2022-07-21T05:47:59;12.73;;;9.77;;
14619;SDS011;32125;48.518;9.050;2022-07-21T05:50:25;9.82;;;8.93;;
14619;SDS011;32125;48.518;9.050;2022-07-21T05:52:53;11.27;;;9.98;;
14619;SDS011;32125;48.518;9.050;2022-07-21T05:55:19;11.77;;;10.57;;
14619;SDS011;32125;48.518;9.050;2022-07-21T05:57:45;15.18;;;10.82;;
14619;SDS011;32125;48.518;9.050;2022-07-21T06:00:11;12.13;;;10.98;;
14619;SDS011;32125;48.518;9.050;2022-07-21T06:02:37;12.95;;;11.13;;
14619;SDS011;32125;48.518;9.050;2022-07-21T06:05:02;12.50;;;11.20;;
14619;SDS011;32125;48.518;9.050;2022-07-21T06:07:28;12.02;;;10.75;;
14619;SDS011;32125;48.518;9.050;2022-07-21T06:09:54;11.98;;;10.77;;
14619;SDS011;32125;48.518;9.050;2022-07-21T06:12:20;12.20;;;11.00;;
14619;SDS011;32125;48.518;9.050;2022-07-21T06:14:49;12.18;;;10.95;;
14619;SDS011;32125;48.518;9.050;2022-07-21T06:17:15;12.48;;;11.05;;
14619;SDS011;32125;48.518;9.050;2022-07-21T06:19:40;11.52;;;10.43;;
14619;SDS011;32125;48.518;9.050;2022-07-21T06:22:06;12.45;;;10.45;;
14619;SDS011;32125;48.518;9.050;2022-07-21T06:24:34;12.32;;;11.13;;
14619;SDS011;32125;48.518;9.050;2022-07-21T06:27:00;13.65;;;10.68;;
14619;SDS011;32125;48.518;9.050;2022-07-21T06:29:26;12.20;;;10.45;;
14619;SDS011;32125;48.518;9.050;2022-07-21T06:31:55;10.93;;;9.82;;
14619;SDS011;32125;48.518;9.050;2022-07-21T06:34:21;11.57;;;10.40;;
14619;SDS011;32125;48.518;9.050;2022-07-21T06:36:47;11.00;;;9.85;;
14619;SDS011;32125;48.518;9.050;2022-07-21T06:39:15;10.73;;;9.55;;
14619;SDS011;32125;48.518;9.050;2022-07-21T06:41:41;11.30;;;8.65;;
14619;SDS011;32125;48.518;9.050;2022-07-21T06:44:07;9.70;;;8.70;;
14619;SDS011;32125;48.518;9.050;2022-07-21T06:46:37;8.95;;;8.05;;
14619;SDS011;32125;48.518;9.050;2022-07-21T06:49:03;10.60;;;8.30;;
14619;SDS011;32125;48.518;9.050;2022-07-21T06:51:28;9.50;;;8.23;;
14619;SDS011;32125;48.518;9.050;2022-07-21T06:53:54;9.40;;;8.18;;
14619;SDS011;32125;48.518;9.050;2022-07-21T06:56:20;9.10;;;8.20;;
14619;SDS011;32125;48.518;9.050;2022-07-21T06:58:46;9.43;;;8.13;;
14619;SDS011;32125;48.518;9.050;2022-07-21T07:01:12;8.35;;;7.65;;
14619;SDS011;32125;48.518;9.050;2022-07-21T07:03:43;8.98;;;8.07;;
14619;SDS011;32125;48.518;9.050;2022-07-21T07:06:11;8.18;;;7.47;;
14619;SDS011;32125;48.518;9.050;2022-07-21T07:08:37;8.35;;;7.55;;
14619;SDS011;32125;48.518;9.050;2022-07-21T07:11:04;8.80;;;7.25;;
14619;SDS011;32125;48.518;9.050;2022-07-21T07:13:30;9.75;;;7.25;;
14619;SDS011;32125;48.518;9.050;2022-07-21T07:15:59;7.50;;;6.47;;
14619;SDS011;32125;48.518;9.050;2022-07-21T07:18:25;7.85;;;7.05;;
14619;SDS011;32125;48.518;9.050;2022-07-21T07:20:51;8.02;;;7.00;;
14619;SDS011;32125;48.518;9.050;2022-07-21T07:23:19;7.57;;;6.80;;
14619;SDS011;32125;48.518;9.050;2022-07-21T07:25:45;8.07;;;7.10;;
14619;SDS011;32125;48.518;9.050;2022-07-21T07:28:11;7.30;;;6.60;;
14619;SDS011;32125;48.518;9.050;2022-07-21T07:30:37;7.43;;;6.78;;
14619;SDS011;32125;48.518;9.050;2022-07-21T07:33:04;7.07;;;6.32;;
14619;SDS011;32125;48.518;9.050;2022-07-21T07:35:29;9.43;;;8.40;;
14619;SDS011;32125;48.518;9.050;2022-07-21T07:37:55;7.40;;;6.65;;
14619;SDS011;32125;48.518;9.050;2022-07-21T07:40:22;7.15;;;6.50;;
14619;SDS011;32125;48.518;9.050;2022-07-21T07:42:50;6.47;;;5.88;;
14619;SDS011;32125;48.518;9.050;2022-07-21T07:45:16;6.88;;;6.18;;
14619;SDS011;32125;48.518;9.050;2022-07-21T07:47:42;6.82;;;6.22;;
14619;SDS011;32125;48.518;9.050;2022-07-21T07:50:10;6.88;;;6.28;;
14619;SDS011;32125;48.518;9.050;2022-07-21T07:52:38;6.97;;;6.35;;
14619;SDS011;32125;48.518;9.050;2022-07-21T07:55:04;6.53;;;5.95;;
14619;SDS011;32125;48.518;9.050;2022-07-21T07:57:33;6.93;;;6.30;;
14619;SDS011;32125;48.518;9.050;2022-07-21T08:00:06;6.78;;;5.90;;
14619;SDS011;32125;48.518;9.050;2022-07-21T08:02:33;6.30;;;5.70;;
14619;SDS011;32125;48.518;9.050;2022-07-21T08:04:58;6.78;;;6.07;;
14619;SDS011;32125;48.518;9.050;2022-07-21T08:07:27;6.78;;;6.03;;
14619;SDS011;32125;48.518;9.050;2022-07-21T08:09:53;7.13;;;6.32;;
14619;SDS011;32125;48.518;9.050;2022-07-21T08:12:21;6.43;;;5.72;;
14619;SDS011;32125;48.518;9.050;2022-07-21T08:14:47;6.35;;;5.85;;
14619;SDS011;32125;48.518;9.050;2022-07-21T08:17:15;6.30;;;5.63;;
14619;SDS011;32125;48.518;9.050;2022-07-21T08:19:41;6.68;;;6.00;;
14619;SDS011;32125;48.518;9.050;2022-07-21T08:22:07;7.53;;;5.97;;
14619;SDS011;32125;48.518;9.050;2022-07-21T08:24:33;6.90;;;6.18;;
14619;SDS011;32125;48.518;9.050;2022-07-21T08:26:59;7.43;;;6.20;;
14619;SDS011;32125;48.518;9.050;2022-07-21T08:29:26;7.55;;;6.07;;
14619;SDS011;32125;48.518;9.050;2022-07-21T08:31:51;6.10;;;5.43;;
14619;SDS011;32125;48.518;9.050;2022-07-21T08:34:17;6.75;;;6.15;;
14619;SDS011;32125;48.518;9.050;2022-07-21T08:36:43;6.07;;;5.53;;
14619;SDS011;32125;48.518;9.050;2022-07-21T08:39:11;6.60;;;5.53;;
14619;SDS011;32125;48.518;9.050;2022-07-21T08:41:37;7.93;;;5.75;;
14619;SDS011;32125;48.518;9.050;2022-07-21T08:44:05;5.88;;;5.35;;
14619;SDS011;32125;48.518;9.050;2022-07-21T08:46:33;6.15;;;5.55;;
14619;SDS011;32125;48.518;9.050;2022-07-21T08:49:02;5.57;;;5.05;;
14619;SDS011;32125;48.518;9.050;2022-07-21T08:51:33;5.85;;;5.22;;
14619;SDS011;32125;48.518;9.050;2022-07-21T08:54:03;6.00;;;5.40;;
14619;SDS011;32125;48.518;9.050;2022-07-21T08:56:29;5.25;;;4.78;;
14619;SDS011;32125;48.518;9.050;2022-07-21T08:58:57;6.18;;;5.25;;
14619;SDS011;32125;48.518;9.050;2022-07-21T09:01:23;5.82;;;5.32;;
14619;SDS011;32125;48.518;9.050;2022-07-21T09:03:54;6.15;;;5.25;;
14619;SDS011;32125;48.518;9.050;2022-07-21T09:06:20;5.78;;;5.22;;
14619;SDS011;32125;48.518;9.050;2022-07-21T09:08:48;6.32;;;5.72;;
14619;SDS011;32125;48.518;9.050;2022-07-21T09:11:21;5.63;;;5.18;;
14619;SDS011;32125;48.518;9.050;2022-07-21T09:13:50;7.43;;;5.65;;
14619;SDS011;32125;48.518;9.050;2022-07-21T09:16:33;6.65;;;5.55;;
14619;SDS011;32125;48.518;9.050;2022-07-21T09:19:00;6.30;;;5.30;;
14619;SDS011;32125;48.518;9.050;2022-07-21T09:21:26;6.03;;;5.43;;
14619;SDS011;32125;48.518;9.050;2022-07-21T09:23:52;6.00;;;5.40;;
14619;SDS011;32125;48.518;9.050;2022-07-21T09:26:18;5.90;;;5.40;;
14619;SDS011;32125;48.518;9.050;2022-07-21T09:28:44;5.47;;;4.97;;
14619;SDS011;32125;48.518;9.050;2022-07-21T09:31:17;5.45;;;4.95;;
14619;SDS011;32125;48.518;9.050;2022-07-21T09:33:44;7.90;;;5.05;;
14619;SDS011;32125;48.518;9.050;2022-07-21T09:36:14;6.55;;;4.72;;
14619;SDS011;32125;48.518;9.050;2022-07-21T09:38:54;5.13;;;4.65;;
14619;SDS011;32125;48.518;9.050;2022-07-21T09:41:21;5.15;;;4.63;;
14619;SDS011;32125;48.518;9.050;2022-07-21T09:43:50;7.28;;;4.55;;
14619;SDS011;32125;48.518;9.050;2022-07-21T09:46:21;6.57;;;4.70;;
14619;SDS011;32125;48.518;9.050;2022-07-21T09:48:51;6.07;;;4.70;;
14619;SDS011;32125;48.518;9.050;2022-07-21T09:54:02;5.22;;;4.72;;
14619;SDS011;32125;48.518;9.050;2022-07-21T09:56:34;5.15;;;4.45;;
14619;SDS011;32125;48.518;9.050;2022-07-21T09:59:04;4.65;;;4.15;;
14619;SDS011;32125;48.518;9.050;2022-07-21T10:01:33;4.85;;;4.30;;
14619;SDS011;32125;48.518;9.050;2022-07-21T10:06:40;4.95;;;4.15;;
14619;SDS011;32125;48.518;9.050;2022-07-21T10:09:07;8.38;;;4.10;;
14619;SDS011;32125;48.518;9.050;2022-07-21T10:11:34;4.60;;;4.20;;
14619;SDS011;32125;48.518;9.050;2022-07-21T10:14:00;4.78;;;4.38;;
14619;SDS011;32125;48.518;9.050;2022-07-21T10:16:30;4.97;;;4.47;;
14619;SDS011;32125;48.518;9.050;2022-07-21T10:24:28;5.88;;;4.53;;
14619;SDS011;32125;48.518;9.050;2022-07-21T10:30:17;4.80;;;4.40;;
14619;SDS011;32125;48.518;9.050;2022-07-21T10:34:58;5.05;;;4.55;;
14619;SDS011;32125;48.518;9.050;2022-07-21T10:40:22;5.10;;;4.60;;
14619;SDS011;32125;48.518;9.050;2022-07-21T10:45:32;4.75;;;4.35;;
14619;SDS011;32125;48.518;9.050;2022-07-21T10:48:46;4.95;;;4.50;;
14619;SDS011;32125;48.518;9.050;2022-07-21T10:51:00;5.40;;;4.40;;
14619;SDS011;32125;48.518;9.050;2022-07-21T10:53:47;5.10;;;4.60;;
14619;SDS011;32125;48.518;9.050;2022-07-21T10:56:36;5.82;;;4.15;;
14619;SDS011;32125;48.518;9.050;2022-07-21T10:59:02;4.63;;;4.20;;
14619;SDS011;32125;48.518;9.050;2022-07-21T11:01:30;4.45;;;4.05;;
14619;SDS011;32125;48.518;9.050;2022-07-21T11:06:35;4.28;;;3.97;;
14619;SDS011;32125;48.518;9.050;2022-07-21T11:11:33;4.80;;;4.25;;
14619;SDS011;32125;48.518;9.050;2022-07-21T11:14:09;5.18;;;4.10;;
14619;SDS011;32125;48.518;9.050;2022-07-21T11:22:00;4.32;;;3.90;;
14619;SDS011;32125;48.518;9.050;2022-07-21T11:24:37;4.05;;;3.67;;
14619;SDS011;32125;48.518;9.050;2022-07-21T11:27:12;4.13;;;3.83;;
14619;SDS011;32125;48.518;9.050;2022-07-21T11:29:43;3.88;;;3.50;;
14619;SDS011;32125;48.518;9.050;2022-07-21T11:32:10;3.88;;;3.35;;
14619;SDS011;32125;48.518;9.050;2022-07-21T11:34:49;4.18;;;3.80;;
14619;SDS011;32125;48.518;9.050;2022-07-21T11:37:36;3.70;;;3.40;;
14619;SDS011;32125;48.518;9.050;2022-07-21T11:40:10;3.80;;;3.50;;
14619;SDS011;32125;48.518;9.050;2022-07-21T11:42:40;5.80;;;3.33;;
14619;SDS011;32125;48.518;9.050;2022-07-21T11:45:11;3.60;;;3.30;;
14619;SDS011;32125;48.518;9.050;2022-07-21T11:47:38;3.35;;;3.15;;
14619;SDS011;32125;48.518;9.050;2022-07-21T11:50:08;4.90;;;3.40;;
14619;SDS011;32125;48.518;9.050;2022-07-21T11:52:37;3.85;;;3.30;;
14619;SDS011;32125;48.518;9.050;2022-07-21T11:55:08;3.80;;;3.10;;
14619;SDS011;32125;48.518;9.050;2022-07-21T11:57:40;3.80;;;3.25;;
14619;SDS011;32125;48.518;9.050;2022-07-21T12:00:09;3.80;;;3.40;;
14619;SDS011;32125;48.518;9.050;2022-07-21T12:02:35;3.75;;;3.47;;
14619;SDS011;32125;48.518;9.050;2022-07-21T12:05:02;3.47;;;3.08;;
14619;SDS011;32125;48.518;9.050;2022-07-21T12:10:25;3.50;;;3.20;;
14619;SDS011;32125;48.518;9.050;2022-07-21T12:12:58;3.55;;;3.22;;
14619;SDS011;32125;48.518;9.050;2022-07-21T12:15:25;3.55;;;3.25;;
14619;SDS011;32125;48.518;9.050;2022-07-21T12:20:26;3.15;;;2.85;;
14619;SDS011;32125;48.518;9.050;2022-07-21T12:22:54;3.78;;;3.47;;
14619;SDS011;32125;48.518;9.050;2022-07-21T12:25:33;4.30;;;3.55;;
14619;SDS011;32125;48.518;9.050;2022-07-21T12:28:07;3.70;;;3.28;;
14619;SDS011;32125;48.518;9.050;2022-07-21T12:33:11;3.60;;;3.20;;
14619;SDS011;32125;48.518;9.050;2022-07-21T12:36:10;4.13;;;3.30;;
14619;SDS011;32125;48.518;9.050;2022-07-21T12:38:37;4.22;;;3.08;;
14619;SDS011;32125;48.518;9.050;2022-07-21T12:41:04;3.83;;;3.30;;
14619;SDS011;32125;48.518;9.050;2022-07-21T12:43:30;4.88;;;3.50;;
14619;SDS011;32125;48.518;9.050;2022-07-21T12:46:00;3.63;;;3.33;;
14619;SDS011;32125;48.518;9.050;2022-07-21T12:48:41;3.38;;;3.10;;
14619;SDS011;32125;48.518;9.050;2022-07-21T12:53:35;3.55;;;3.25;;
14619;SDS011;32125;48.518;9.050;2022-07-21T12:56:13;3.47;;;3.17;;
14619;SDS011;32125;48.518;9.050;2022-07-21T12:58:40;4.18;;;3.30;;
14619;SDS011;32125;48.518;9.050;2022-07-21T13:01:06;4.00;;;3.50;;
14619;SDS011;32125;48.518;9.050;2022-07-21T13:03:33;4.43;;;3.58;;
14619;SDS011;32125;48.518;9.050;2022-07-21T13:06:00;3.45;;;3.20;;
14619;SDS011;32125;48.518;9.050;2022-07-21T13:08:28;3.38;;;3.08;;
14619;SDS011;32125;48.518;9.050;2022-07-21T13:10:55;5.55;;;3.40;;
14619;SDS011;32125;48.518;9.050;2022-07-21T13:13:21;3.30;;;3.00;;
14619;SDS011;32125;48.518;9.050;2022-07-21T13:15:49;3.65;;;3.35;;
14619;SDS011;32125;48.518;9.050;2022-07-21T13:18:15;4.35;;;3.22;;
14619;SDS011;32125;48.518;9.050;2022-07-21T13:20:41;3.50;;;3.20;;
14619;SDS011;32125;48.518;9.050;2022-07-21T13:23:08;3.38;;;3.10;;
14619;SDS011;32125;48.518;9.050;2022-07-21T13:25:35;3.88;;;3.38;;
14619;SDS011;32125;48.518;9.050;2022-07-21T13:28:02;3.40;;;3.00;;
14619;SDS011;32125;48.518;9.050;2022-07-21T13:30:29;3.47;;;3.17;;
14619;SDS011;32125;48.518;9.050;2022-07-21T13:32:55;3.70;;;3.40;;
14619;SDS011;32125;48.518;9.050;2022-07-21T13:35:23;4.38;;;3.28;;
14619;SDS011;32125;48.518;9.050;2022-07-21T13:37:49;5.53;;;3.45;;
14619;SDS011;32125;48.518;9.050;2022-07-21T13:40:18;3.13;;;2.92;;
14619;SDS011;32125;48.518;9.050;2022-07-21T13:42:44;3.50;;;3.20;;
14619;SDS011;32125;48.518;9.050;2022-07-21T13:45:10;3.78;;;3.40;;
14619;SDS011;32125;48.518;9.050;2022-07-21T13:47:41;3.60;;;3.20;;
14619;SDS011;32125;48.518;9.050;2022-07-21T13:50:08;4.32;;;3.40;;
14619;SDS011;32125;48.518;9.050;2022-07-21T13:52:34;3.40;;;3.10;;
14619;SDS011;32125;48.518;9.050;2022-07-21T13:55:00;3.45;;;3.15;;
14619;SDS011;32125;48.518;9.050;2022-07-21T13:57:28;3.35;;;3.05;;
14619;SDS011;32125;48.518;9.050;2022-07-21T13:59:57;4.45;;;3.25;;
14619;SDS011;32125;48.518;9.050;2022-07-21T14:02:23;3.17;;;2.90;;
14619;SDS011;32125;48.518;9.050;2022-07-21T14:04:49;3.22;;;3.00;;
14619;SDS011;32125;48.518;9.050;2022-07-21T14:07:15;3.45;;;3.13;;
14619;SDS011;32125;48.518;9.050;2022-07-21T14:09:41;3.58;;;3.13;;
14619;SDS011;32125;48.518;9.050;2022-07-21T14:12:07;3.63;;;3.20;;
14619;SDS011;32125;48.518;9.050;2022-07-21T14:14:35;3.55;;;3.25;;
14619;SDS011;32125;48.518;9.050;2022-07-21T14:17:01;3.30;;;3.05;;
14619;SDS011;32125;48.518;9.050;2022-07-21T14:19:27;3.85;;;3.30;;
14619;SDS011;32125;48.518;9.050;2022-07-21T14:21:53;3.53;;;3.22;;
14619;SDS011;32125;48.518;9.050;2022-07-21T14:24:21;3.67;;;3.38;;
14619;SDS011;32125;48.518;9.050;2022-07-21T14:27:06;4.32;;;3.13;;
14619;SDS011;32125;48.518;9.050;2022-07-21T14:29:31;3.97;;;3.20;;
14619;SDS011;32125;48.518;9.050;2022-07-21T14:31:57;3.92;;;3.63;;
14619;SDS011;32125;48.518;9.050;2022-07-21T14:34:23;4.13;;;3.70;;
14619;SDS011;32125;48.518;9.050;2022-07-21T14:36:49;4.32;;;2.90;;
14619;SDS011;32125;48.518;9.050;2022-07-21T14:39:16;3.70;;;3.30;;
14619;SDS011;32125;48.518;9.050;2022-07-21T14:41:43;5.00;;;3.03;;
14619;SDS011;32125;48.518;9.050;2022-07-21T14:44:11;3.65;;;3.10;;
14619;SDS011;32125;48.518;9.050;2022-07-21T14:46:37;3.25;;;2.97;;
14619;SDS011;32125;48.518;9.050;2022-07-21T14:49:04;3.78;;;3.30;;
14619;SDS011;32125;48.518;9.050;2022-07-21T14:51:30;3.33;;;3.03;;
14619;SDS011;32125;48.518;9.050;2022-07-21T14:53:56;6.43;;;3.47;;
14619;SDS011;32125;48.518;9.050;2022-07-21T14:56:22;3.72;;;3.22;;
14619;SDS011;32125;48.518;9.050;2022-07-21T14:58:48;4.25;;;3.38;;
14619;SDS011;32125;48.518;9.050;2022-07-21T15:01:14;3.80;;;3.50;;
14619;SDS011;32125;48.518;9.050;2022-07-21T15:03:40;3.97;;;3.58;;
14619;SDS011;32125;48.518;9.050;2022-07-21T15:06:08;3.50;;;3.20;;
14619;SDS011;32125;48.518;9.050;2022-07-21T15:08:34;5.18;;;3.70;;
14619;SDS011;32125;48.518;9.050;2022-07-21T15:10:59;3.83;;;3.50;;
14619;SDS011;32125;48.518;9.050;2022-07-21T15:13:25;3.20;;;3.00;;
14619;SDS011;32125;48.518;9.050;2022-07-21T15:15:56;4.50;;;3.30;;
14619;SDS011;32125;48.518;9.050;2022-07-21T15:18:22;3.55;;;3.25;;
14619;SDS011;32125;48.518;9.050;2022-07-21T15:20:48;3.33;;;3.00;;
14619;SDS011;32125;48.518;9.050;2022-07-21T15:23:16;3.88;;;3.30;;
14619;SDS011;32125;48.518;9.050;2022-07-21T15:25:42;4.70;;;3.30;;
14619;SDS011;32125;48.518;9.050;2022-07-21T15:28:08;3.90;;;3.50;;